Time;durP1;ratioP1;P1;durP2;ratioP2;P2;SDS_P1;SDS_P2;PMS_P1;PMS_P2;Temp;Humidity;BMP_temperature;BMP_pressure;BME280_temperature;BME280_humidity;BME280_pressure;Samples;Min_cycle;Max_cycle;Signal;HPM_P1;HPM_P2
2024/03/25 00:01:29;;;;;;;1.15;0.82;;;;;;;3.68;37.84;91712.63;5046294;28;20081;-84
2024/03/25 00:03:54;;;;;;;1.63;0.85;;;;;;;3.72;38.15;91715.47;5048925;28;20037;-83
2024/03/25 00:06:20;;;;;;;0.85;0.70;;;;;;;3.72;37.92;91720.66;5049310;28;20463;-82
2024/03/25 00:08:45;;;;;;;0.68;0.68;;;;;;;3.82;38.20;91715.44;5044958;28;20363;-84
2024/03/25 00:11:11;;;;;;;0.77;0.70;;;;;;;3.91;37.80;91718.28;5026062;28;20041;-84
2024/03/25 00:13:37;;;;;;;0.80;0.80;;;;;;;4.00;37.80;91721.09;5029211;28;20041;-84
2024/03/25 00:16:04;;;;;;;0.60;0.60;;;;;;;4.06;38.10;91722.63;5027541;28;20502;-83
2024/03/25 00:18:30;;;;;;;0.60;0.60;;;;;;;4.13;37.58;91738.66;5046881;28;20053;-83
2024/03/25 00:20:56;;;;;;;1.52;0.80;;;;;;;4.15;38.20;91728.81;5048343;28;20056;-83
2024/03/25 00:23:21;;;;;;;0.68;0.68;;;;;;;4.04;38.46;91729.91;5052296;28;20445;-82
2024/03/25 00:25:47;;;;;;;0.60;0.60;;;;;;;4.22;38.48;91734.50;5034321;28;20049;-83
2024/03/25 00:28:12;;;;;;;1.80;0.73;;;;;;;4.07;38.34;91744.91;5033093;28;20440;-83
2024/03/25 00:30:38;;;;;;;0.82;0.80;;;;;;;3.94;38.52;91734.06;5029639;28;20037;-84
2024/03/25 00:33:03;;;;;;;0.93;0.80;;;;;;;3.99;38.49;91724.75;5042666;28;20653;-83
2024/03/25 00:35:29;;;;;;;0.63;0.63;;;;;;;4.01;38.69;91727.81;5046818;28;20128;-84
2024/03/25 00:37:54;;;;;;;0.65;0.65;;;;;;;4.01;38.34;91727.81;5050195;28;20033;-82
2024/03/25 00:40:20;;;;;;;1.02;0.88;;;;;;;3.94;38.87;91720.31;5054408;28;20467;-83
2024/03/25 00:42:46;;;;;;;0.60;0.60;;;;;;;3.91;39.12;91724.22;5052730;28;20041;-83
2024/03/25 00:45:12;;;;;;;1.58;0.90;;;;;;;3.84;39.23;91723.72;5051690;28;20300;-83
2024/03/25 00:47:37;;;;;;;1.02;0.90;;;;;;;3.75;40.08;91722.72;5051089;28;20044;-84
2024/03/25 00:50:03;;;;;;;0.90;0.80;;;;;;;3.80;39.08;91727.09;5021176;28;20036;-84
2024/03/25 00:52:29;;;;;;;1.08;0.70;;;;;;;3.80;39.71;91724.50;5025912;28;20032;-84
2024/03/25 00:54:54;;;;;;;0.60;0.60;;;;;;;3.68;40.35;91724.81;5047778;28;20121;-83
2024/03/25 00:57:20;;;;;;;0.88;0.80;;;;;;;3.65;39.96;91720.16;5042085;28;20466;-84
2024/03/25 00:59:45;;;;;;;1.50;0.93;;;;;;;3.59;39.15;91726.38;5041217;28;20061;-83
2024/03/25 01:02:11;;;;;;;0.93;0.73;;;;;;;3.65;39.67;91717.56;5046000;28;20075;-83
2024/03/25 01:04:37;;;;;;;1.58;0.80;;;;;;;3.61;40.16;91712.13;5040812;28;20037;-83
2024/03/25 01:07:03;;;;;;;0.85;0.73;;;;;;;3.66;40.12;91721.69;5046612;28;20040;-83
2024/03/25 01:09:29;;;;;;;1.95;0.90;;;;;;;3.62;40.23;91705.91;5026749;28;20399;-83
2024/03/25 01:11:55;;;;;;;0.70;0.70;;;;;;;3.61;40.31;91706.19;5041072;28;20058;-84
2024/03/25 01:14:21;;;;;;;0.95;0.68;;;;;;;3.60;40.50;91704.63;5032624;28;20565;-83
2024/03/25 01:16:46;;;;;;;0.70;0.70;;;;;;;3.61;40.50;91701.00;5021397;28;20072;-83
2024/03/25 01:19:12;;;;;;;0.98;0.60;;;;;;;3.60;40.61;91702.03;5048348;28;20153;-84
2024/03/25 01:21:37;;;;;;;1.38;0.80;;;;;;;3.55;40.71;91700.22;5041882;28;20060;-83
2024/03/25 01:24:03;;;;;;;0.93;0.88;;;;;;;3.54;40.83;91702.06;5049682;28;20041;-83
2024/03/25 01:26:29;;;;;;;1.05;0.75;;;;;;;3.51;40.89;91705.16;5047525;28;20032;-83
2024/03/25 01:28:54;;;;;;;1.10;1.00;;;;;;;3.51;40.80;91697.41;5042257;28;20395;-81
2024/03/25 01:31:20;;;;;;;0.68;0.68;;;;;;;3.45;40.74;91693.28;5052068;28;20049;-83
2024/03/25 01:33:45;;;;;;;1.17;0.77;;;;;;;3.54;40.30;91691.69;5046897;28;20334;-83
2024/03/25 01:36:17;;;;;;;1.00;0.80;;;;;;;3.56;39.78;91683.69;5044793;28;20047;-83
2024/03/25 01:38:43;;;;;;;2.30;0.70;;;;;;;3.59;39.73;91675.38;5039806;28;20441;-82
2024/03/25 01:41:15;;;;;;;0.77;0.77;;;;;;;3.67;38.81;91687.00;5037572;28;20116;-82
2024/03/25 01:43:40;;;;;;;1.00;0.80;;;;;;;3.68;38.65;91685.97;5046394;28;20104;-83
2024/03/25 01:46:07;;;;;;;0.63;0.63;;;;;;;3.71;38.60;91682.84;5039865;28;20045;-83
2024/03/25 01:48:33;;;;;;;1.10;0.90;;;;;;;3.76;38.13;91685.44;5019074;28;20042;-83
2024/03/25 01:51:00;;;;;;;0.93;0.70;;;;;;;3.79;38.27;91690.09;5026521;28;20044;-84
2024/03/25 01:53:27;;;;;;;0.73;0.73;;;;;;;3.83;37.99;91685.94;5038960;28;20036;-83
2024/03/25 01:55:56;;;;;;;1.25;0.80;;;;;;;3.78;38.40;91682.56;5048199;28;20033;-82
2024/03/25 01:58:22;;;;;;;1.00;0.70;;;;;;;3.75;38.57;91694.25;5044239;28;20029;-83
2024/03/25 02:00:50;;;;;;;0.77;0.77;;;;;;;3.73;38.44;91691.13;5023900;28;20046;-83
2024/03/25 02:03:15;;;;;;;0.65;0.65;;;;;;;3.81;37.91;91690.59;5042963;28;20033;-83
2024/03/25 02:05:41;;;;;;;0.70;0.70;;;;;;;3.78;38.02;91685.94;5028647;28;20033;-82
2024/03/25 02:08:07;;;;;;;0.98;0.70;;;;;;;3.75;38.07;91691.66;5045901;28;20034;-83
2024/03/25 02:10:33;;;;;;;0.80;0.80;;;;;;;3.70;38.27;91686.50;5041858;28;20457;-82
2024/03/25 02:12:59;;;;;;;1.10;0.82;;;;;;;3.69;37.74;91688.31;5051512;28;20106;-83
2024/03/25 02:15:26;;;;;;;1.70;0.75;;;;;;;3.72;38.17;91687.00;5053286;28;20095;-83
2024/03/25 02:17:52;;;;;;;1.17;1.00;;;;;;;3.69;38.75;91684.94;5050218;28;20041;-83
2024/03/25 02:20:18;;;;;;;0.60;0.60;;;;;;;3.65;38.95;91681.34;5032839;28;20036;-82
2024/03/25 02:22:43;;;;;;;1.35;0.80;;;;;;;3.62;39.21;91681.84;5043308;28;20128;-82
2024/03/25 02:25:10;;;;;;;0.80;0.80;;;;;;;3.55;39.93;91684.69;5049654;28;20028;-85
2024/03/25 02:27:39;;;;;;;1.45;1.00;;;;;;;3.51;39.77;91678.50;5034259;28;20083;-83
2024/03/25 02:30:07;;;;;;;1.33;0.90;;;;;;;3.47;39.85;91683.44;5046883;28;20368;-81
2024/03/25 02:32:33;;;;;;;1.08;0.88;;;;;;;3.43;40.05;91685.00;5053749;28;20037;-83
2024/03/25 02:35:01;;;;;;;0.88;0.80;;;;;;;3.42;40.34;91677.47;5049586;28;20458;-82
2024/03/25 02:37:27;;;;;;;1.25;0.80;;;;;;;3.37;40.81;91683.44;5047863;28;20121;-84
2024/03/25 02:39:58;;;;;;;1.10;0.80;;;;;;;3.29;40.97;91671.06;5048829;28;20505;-82
2024/03/25 02:42:26;;;;;;;1.15;0.80;;;;;;;3.28;41.08;91679.84;5028213;28;20111;-82
2024/03/25 02:44:53;;;;;;;0.63;0.63;;;;;;;3.41;40.63;91675.94;5044874;28;20030;-83
2024/03/25 02:47:19;;;;;;;1.17;0.90;;;;;;;3.31;40.78;91677.50;5051074;28;20021;-83
2024/03/25 02:49:45;;;;;;;0.93;0.70;;;;;;;3.32;40.38;91673.09;5054838;28;20525;-85
2024/03/25 02:52:11;;;;;;;1.45;0.63;;;;;;;3.51;39.45;91668.94;5052293;28;20037;-83
2024/03/25 02:54:36;;;;;;;0.60;0.60;;;;;;;3.49;39.34;91672.81;5052131;28;20037;-83
2024/03/25 02:57:02;;;;;;;0.70;0.70;;;;;;;3.41;40.29;91671.53;5047598;28;20033;-84
2024/03/25 02:59:28;;;;;;;0.80;0.80;;;;;;;3.41;40.30;91671.53;5052690;28;20094;-84
2024/03/25 03:01:53;;;;;;;1.33;0.73;;;;;;;3.39;40.02;91675.44;5045645;28;20025;-82
2024/03/25 03:04:19;;;;;;;0.75;0.70;;;;;;;3.42;39.38;91673.06;5046134;28;20043;-83
2024/03/25 03:06:44;;;;;;;0.73;0.70;;;;;;;3.49;39.10;91660.66;5036812;28;20061;-83
2024/03/25 03:09:10;;;;;;;4.00;0.90;;;;;;;3.50;39.22;91672.56;5028931;28;20115;-83
2024/03/25 03:11:36;;;;;;;0.80;0.68;;;;;;;3.46;39.55;91676.69;5049412;28;20053;-83
2024/03/25 03:14:01;;;;;;;0.75;0.75;;;;;;;3.47;38.33;91661.97;5046923;28;20056;-84
2024/03/25 03:16:27;;;;;;;1.35;0.88;;;;;;;3.44;39.12;91683.94;5048394;28;20029;-84
2024/03/25 03:18:52;;;;;;;1.58;1.00;;;;;;;3.45;38.78;91682.16;5032811;28;20104;-83
2024/03/25 03:21:18;;;;;;;1.00;0.85;;;;;;;3.38;38.91;91684.22;5041738;28;20048;-83
2024/03/25 03:23:44;;;;;;;1.30;0.82;;;;;;;3.39;39.95;91688.38;5046329;28;20037;-83
2024/03/25 03:26:10;;;;;;;0.60;0.60;;;;;;;3.32;39.83;91686.03;5048612;28;20051;-83
2024/03/25 03:28:35;;;;;;;1.63;0.93;;;;;;;3.28;39.58;91688.38;5047238;28;20040;-83
2024/03/25 03:31:01;;;;;;;1.23;0.90;;;;;;;3.34;39.59;91681.38;5048053;28;20121;-83
2024/03/25 03:33:26;;;;;;;0.80;0.80;;;;;;;3.33;39.65;91682.41;5043143;28;20109;-83
2024/03/25 03:35:52;;;;;;;0.80;0.70;;;;;;;3.26;39.79;91676.72;5051733;28;20037;-83
2024/03/25 03:38:18;;;;;;;1.15;0.80;;;;;;;3.31;39.42;91680.09;5044976;28;20098;-83
2024/03/25 03:40:55;;;;;;;0.80;0.80;;;;;;;3.30;39.55;91675.19;5042638;28;20028;-83
2024/03/25 03:43:20;;;;;;;0.85;0.80;;;;;;;3.36;39.84;91671.56;5050713;28;20084;-83
2024/03/25 03:45:46;;;;;;;0.85;0.82;;;;;;;3.38;40.30;91669.47;5053133;28;20104;-83
2024/03/25 03:48:12;;;;;;;1.10;0.80;;;;;;;3.36;40.61;91666.38;5053003;28;20025;-83
2024/03/25 03:50:37;;;;;;;1.23;0.70;;;;;;;3.29;40.60;91663.28;5032729;28;20556;-83
2024/03/25 03:53:04;;;;;;;0.95;0.70;;;;;;;3.28;40.52;91659.91;5050714;28;20029;-84
2024/03/25 03:55:29;;;;;;;1.27;1.13;;;;;;;3.29;39.89;91658.13;5034880;28;20037;-83
2024/03/25 03:57:55;;;;;;;1.13;0.82;;;;;;;3.30;39.89;91657.84;5027431;28;20095;-82
2024/03/25 04:00:20;;;;;;;1.63;0.70;;;;;;;3.37;39.39;91651.63;5055058;28;20493;-83
2024/03/25 04:02:46;;;;;;;1.15;0.88;;;;;;;3.32;39.95;91648.00;5028266;28;20043;-83
2024/03/25 04:05:11;;;;;;;1.05;0.82;;;;;;;3.30;40.34;91647.50;5044834;28;20034;-83
2024/03/25 04:07:38;;;;;;;1.98;0.80;;;;;;;3.28;40.38;91656.56;5052153;28;20210;-83
2024/03/25 04:10:05;;;;;;;0.80;0.80;;;;;;;3.22;40.56;91660.19;5041480;28;20040;-83
2024/03/25 04:12:30;;;;;;;0.80;0.80;;;;;;;3.19;40.76;91658.13;5050276;28;20144;-83
2024/03/25 04:14:56;;;;;;;0.75;0.75;;;;;;;3.13;41.03;91663.31;5043442;28;20037;-82
2024/03/25 04:17:22;;;;;;;1.40;0.90;;;;;;;3.07;40.89;91655.81;5025302;28;20029;-83
2024/03/25 04:19:51;;;;;;;1.27;0.80;;;;;;;3.06;41.93;91667.97;5045993;28;20037;-84
2024/03/25 04:22:17;;;;;;;0.88;0.80;;;;;;;3.10;41.09;91666.41;5044316;28;20033;-82
2024/03/25 04:24:43;;;;;;;0.95;0.82;;;;;;;3.05;41.55;91665.63;5044176;28;20043;-82
2024/03/25 04:27:09;;;;;;;1.13;0.70;;;;;;;3.05;41.01;91663.81;5054731;28;20040;-83
2024/03/25 04:29:34;;;;;;;1.10;0.77;;;;;;;3.05;40.93;91661.22;5044535;28;20394;-83
2024/03/25 04:32:01;;;;;;;1.38;0.70;;;;;;;3.06;40.30;91667.97;5050011;28;20037;-82
2024/03/25 04:34:27;;;;;;;1.15;0.90;;;;;;;3.09;39.84;91667.44;5051585;28;20033;-83
2024/03/25 04:36:53;;;;;;;1.30;0.80;;;;;;;3.05;40.73;91665.63;5045938;28;20037;-82
2024/03/25 04:39:19;;;;;;;0.93;0.70;;;;;;;2.99;41.99;91669.25;5044856;28;20034;-83
2024/03/25 04:41:46;;;;;;;0.50;0.50;;;;;;;3.03;40.90;91670.28;5027773;28;20410;-83
2024/03/25 04:44:11;;;;;;;0.70;0.70;;;;;;;2.96;41.55;91662.78;5053714;28;20029;-83
2024/03/25 04:46:37;;;;;;;0.95;0.70;;;;;;;2.84;43.41;91668.22;5047396;28;20029;-83
2024/03/25 04:49:03;;;;;;;1.13;0.80;;;;;;;2.73;43.67;91674.44;5048946;28;20037;-84
2024/03/25 04:51:31;;;;;;;0.80;0.80;;;;;;;2.63;43.71;91675.16;5047630;28;20033;-82
2024/03/25 04:53:57;;;;;;;1.02;0.75;;;;;;;2.59;43.12;91676.75;5050183;28;20029;-83
2024/03/25 04:56:28;;;;;;;0.85;0.75;;;;;;;2.58;43.44;91677.75;5044961;28;20040;-84
2024/03/25 04:58:53;;;;;;;1.02;0.85;;;;;;;2.53;43.20;91670.00;5049087;28;20100;-84
2024/03/25 05:01:19;;;;;;;0.63;0.63;;;;;;;2.48;43.56;91675.94;5050217;28;20437;-83
2024/03/25 05:03:44;;;;;;;2.35;1.10;;;;;;;2.45;43.15;91675.66;5034252;28;20045;-82
2024/03/25 05:06:11;;;;;;;0.90;0.90;;;;;;;2.40;43.65;91686.78;5026301;28;20112;-85
2024/03/25 05:08:36;;;;;;;0.65;0.63;;;;;;;2.37;43.89;91686.53;5055533;28;20110;-85
2024/03/25 05:11:02;;;;;;;1.38;0.77;;;;;;;2.33;44.55;91686.25;5054863;28;20509;-83
2024/03/25 05:13:28;;;;;;;0.95;0.73;;;;;;;2.31;45.94;91687.53;5035484;28;20128;-82
2024/03/25 05:15:53;;;;;;;0.73;0.70;;;;;;;2.24;46.38;91683.38;5058061;28;20033;-81
2024/03/25 05:18:19;;;;;;;1.70;0.95;;;;;;;2.16;47.71;91681.31;5032872;28;20029;-83
2024/03/25 05:20:45;;;;;;;0.98;0.90;;;;;;;2.24;45.71;91678.22;5031320;28;20049;-84
2024/03/25 05:23:10;;;;;;;0.88;0.80;;;;;;;2.21;45.52;91670.22;5056407;28;20052;-84
2024/03/25 05:25:36;;;;;;;1.17;0.90;;;;;;;2.25;45.67;91679.78;5061971;28;20088;-81
2024/03/25 05:28:02;;;;;;;0.80;0.80;;;;;;;2.32;45.61;91687.28;5058815;28;20263;-82
2024/03/25 05:30:28;;;;;;;0.93;0.80;;;;;;;2.47;44.06;91694.28;5053098;28;20091;-83
2024/03/25 05:32:53;;;;;;;0.63;0.60;;;;;;;2.60;43.23;91693.00;5055875;28;20037;-84
2024/03/25 05:35:19;;;;;;;0.90;0.90;;;;;;;2.68;43.41;91690.69;5052089;28;20037;-83
2024/03/25 05:37:44;;;;;;;0.80;0.80;;;;;;;2.78;43.29;91694.31;5054707;28;20037;-82
2024/03/25 05:40:11;;;;;;;2.60;1.00;;;;;;;2.82;43.34;91683.22;5062507;28;20044;-82
2024/03/25 05:42:37;;;;;;;0.75;0.75;;;;;;;2.97;44.01;91697.16;5054408;28;20051;-82
2024/03/25 05:45:03;;;;;;;1.70;0.90;;;;;;;3.06;43.91;91693.84;5060751;28;20263;-81
2024/03/25 05:47:29;;;;;;;1.77;0.90;;;;;;;3.12;43.58;91682.44;5057731;28;20041;-82
2024/03/25 05:49:55;;;;;;;1.05;0.80;;;;;;;3.37;42.85;91693.78;5043677;28;20025;-81
2024/03/25 05:52:20;;;;;;;3.38;0.70;;;;;;;3.55;41.83;91690.66;5054995;28;20045;-83
2024/03/25 05:54:46;;;;;;;0.68;0.68;;;;;;;4.23;40.13;91679.03;5040622;28;20041;-83
2024/03/25 05:57:11;;;;;;;0.77;0.77;;;;;;;5.68;37.82;91679.56;5055055;28;20450;-82
2024/03/25 05:59:37;;;;;;;2.00;0.90;;;;;;;6.85;36.05;91683.34;5041270;28;20043;-82
2024/03/25 06:02:03;;;;;;;4.05;0.90;;;;;;;7.64;35.52;91689.69;5040117;28;20033;-82
2024/03/25 06:04:28;;;;;;;1.63;0.85;;;;;;;8.28;35.85;91695.78;5053682;28;20036;-84
2024/03/25 06:06:54;;;;;;;1.65;1.08;;;;;;;8.94;32.06;91688.47;5039299;28;20017;-83
2024/03/25 06:09:19;;;;;;;2.22;1.10;;;;;;;9.62;32.77;91688.47;5056359;28;20040;-84
2024/03/25 06:11:45;;;;;;;1.05;0.95;;;;;;;10.41;30.92;91693.00;5019371;28;20048;-84
2024/03/25 06:14:11;;;;;;;2.15;1.13;;;;;;;11.16;31.28;91686.94;5022774;28;20111;-84
2024/03/25 06:16:37;;;;;;;0.80;0.80;;;;;;;11.73;29.33;91684.09;5037193;28;20072;-84
2024/03/25 06:19:03;;;;;;;1.38;0.90;;;;;;;12.28;27.86;91691.19;5027222;28;20068;-83
2024/03/25 06:21:28;;;;;;;1.85;0.95;;;;;;;13.07;26.86;91690.75;5059074;28;20071;-82
2024/03/25 06:23:54;;;;;;;2.05;0.95;;;;;;;13.26;26.53;91682.41;5062587;28;20041;-83
2024/03/25 06:26:22;;;;;;;1.10;0.80;;;;;;;13.93;26.74;91689.25;5056556;28;20089;-83
2024/03/25 06:28:47;;;;;;;2.15;0.90;;;;;;;14.89;25.27;91695.28;5061511;28;20053;-85
2024/03/25 06:34:21;;;;;;;4.63;1.05;;;;;;;15.21;25.58;91696.22;5034454;28;20141;-82
2024/03/25 06:37:16;;;;;;;3.40;0.90;;;;;;;14.95;25.16;91686.81;5040967;28;20067;-83
2024/03/25 06:39:42;;;;;;;5.53;1.33;;;;;;;16.38;24.02;91689.88;5060008;28;20092;-83
2024/03/25 06:42:07;;;;;;;4.50;0.82;;;;;;;15.93;24.77;91698.19;5017466;28;20419;-82
2024/03/25 06:44:34;;;;;;;2.15;0.90;;;;;;;15.94;24.19;91689.94;5041260;28;20041;-83
2024/03/25 06:46:59;;;;;;;0.75;0.70;;;;;;;16.28;24.17;91698.31;5032919;28;20028;-83
2024/03/25 06:49:28;;;;;;;4.68;0.90;;;;;;;16.74;24.33;91698.63;5022556;28;20046;-82
2024/03/25 06:51:54;;;;;;;1.10;0.60;;;;;;;16.79;24.34;91694.97;5032258;28;20025;-82
2024/03/25 06:54:30;;;;;;;0.70;0.60;;;;;;;16.44;23.47;91688.53;5058102;28;20041;-82
2024/03/25 06:56:56;;;;;;;0.93;0.73;;;;;;;17.50;22.19;91697.66;5031810;28;20044;-82
2024/03/25 06:59:22;;;;;;;1.13;0.65;;;;;;;17.76;23.70;91694.34;5026607;28;20025;-82
2024/03/25 07:01:49;;;;;;;2.50;1.20;;;;;;;17.94;22.36;91695.47;5055772;28;20107;-81
2024/03/25 07:04:15;;;;;;;1.63;0.82;;;;;;;17.40;22.94;91705.00;5053160;28;20513;-82
2024/03/25 07:06:42;;;;;;;2.03;0.90;;;;;;;17.05;24.81;91697.09;5042687;28;20041;-81
2024/03/25 07:09:11;;;;;;;4.55;1.10;;;;;;;16.83;23.85;91701.91;5019396;28;20071;-82
2024/03/25 07:11:36;;;;;;;0.98;0.70;;;;;;;17.01;24.14;91704.19;5054184;28;20057;-81
2024/03/25 07:14:02;;;;;;;1.65;0.80;;;;;;;17.74;22.54;91707.16;5022205;28;20052;-81
2024/03/25 07:16:29;;;;;;;1.85;0.80;;;;;;;18.22;22.25;91710.38;5045892;28;20041;-82
2024/03/25 07:18:56;;;;;;;0.98;0.77;;;;;;;16.74;23.91;91708.44;5051911;28;20041;-82
2024/03/25 07:21:21;;;;;;;1.88;1.00;;;;;;;16.35;24.74;91705.66;5051169;28;20059;-82
2024/03/25 07:23:47;;;;;;;5.50;0.82;;;;;;;15.39;26.33;91699.34;5043877;28;20037;-81
2024/03/25 07:26:13;;;;;;;1.35;0.80;;;;;;;13.61;26.92;91713.72;5051448;28;20036;-82
2024/03/25 07:28:38;;;;;;;0.70;0.70;;;;;;;13.56;28.60;91719.19;5046968;28;20130;-81
2024/03/25 07:31:04;;;;;;;2.25;1.05;;;;;;;12.31;29.48;91715.28;5043521;28;20513;-81
2024/03/25 07:33:45;;;;;;;0.60;0.60;;;;;;;12.11;29.56;91716.72;5025180;28;20048;-81
2024/03/25 07:36:11;;;;;;;2.25;0.93;;;;;;;11.83;31.36;91717.09;5043128;28;20041;-82
2024/03/25 07:38:37;;;;;;;1.08;0.82;;;;;;;11.60;30.36;91717.28;5044782;28;20064;-81
2024/03/25 07:41:23;;;;;;;2.42;1.17;;;;;;;11.58;31.50;91719.44;5028034;28;20041;-81
2024/03/25 07:43:48;;;;;;;4.15;1.20;;;;;;;10.95;32.17;91716.34;5043970;28;20113;-80
2024/03/25 07:46:14;;;;;;;1.55;0.90;;;;;;;11.11;32.07;91716.66;5043597;28;20029;-82
2024/03/25 07:48:42;;;;;;;2.55;1.05;;;;;;;11.22;32.52;91712.66;5043534;28;20044;-80
2024/03/25 07:51:07;;;;;;;1.08;0.82;;;;;;;11.43;31.80;91727.75;5053601;28;20041;-81
2024/03/25 07:53:34;;;;;;;1.38;1.10;;;;;;;12.00;32.09;91724.16;5030138;28;20445;-81
2024/03/25 07:55:59;;;;;;;1.63;0.90;;;;;;;11.08;34.24;91717.28;5053263;28;20093;-81
2024/03/25 07:58:26;;;;;;;4.15;1.63;;;;;;;10.65;34.84;91731.09;5064524;28;20055;-81
2024/03/25 08:00:52;;;;;;;1.08;0.90;;;;;;;9.79;34.70;91733.00;5063482;28;20191;-80
2024/03/25 08:03:18;;;;;;;1.50;0.90;;;;;;;9.38;35.91;91739.19;5051422;28;20056;-80
2024/03/25 08:05:43;;;;;;;2.10;1.20;;;;;;;9.23;37.78;91744.78;5043277;28;20037;-81
2024/03/25 08:08:10;;;;;;;1.83;1.15;;;;;;;9.46;39.57;91748.16;5043309;28;20061;-80
2024/03/25 08:10:37;;;;;;;1.00;0.85;;;;;;;9.38;36.88;91751.47;5043045;28;20042;-79
2024/03/25 08:13:03;;;;;;;2.15;0.90;;;;;;;9.55;38.49;91750.84;5041832;28;20064;-80
2024/03/25 08:15:28;;;;;;;4.55;1.20;;;;;;;10.00;37.29;91740.34;5025776;28;20034;-81
2024/03/25 08:17:54;;;;;;;1.67;0.77;;;;;;;10.21;34.24;91738.75;5043289;28;20056;-81
2024/03/25 08:20:30;;;;;;;0.90;0.77;;;;;;;10.01;36.93;91741.88;5043788;28;20044;-80
2024/03/25 08:22:56;;;;;;;1.15;0.90;;;;;;;10.05;38.56;91734.22;5050379;28;20037;-80
2024/03/25 08:25:21;;;;;;;0.88;0.80;;;;;;;10.09;36.22;91738.53;5024579;28;20041;-81
2024/03/25 08:27:50;;;;;;;2.78;0.90;;;;;;;9.91;33.60;91735.06;5043508;28;20061;-80
2024/03/25 08:30:15;;;;;;;2.35;1.10;;;;;;;9.32;34.95;91745.59;5048796;28;20056;-81
2024/03/25 08:32:41;;;;;;;1.65;0.65;;;;;;;9.30;34.77;91737.28;5043011;28;20036;-80
2024/03/25 08:35:07;;;;;;;1.30;0.93;;;;;;;9.34;35.84;91732.22;5042835;28;20052;-80
2024/03/25 08:37:40;;;;;;;2.78;0.90;;;;;;;9.29;35.09;91735.72;5038449;28;20102;-80
2024/03/25 08:40:06;;;;;;;1.30;0.80;;;;;;;9.00;34.67;91741.34;5062398;28;20037;-81
2024/03/25 08:42:40;;;;;;;0.73;0.70;;;;;;;9.30;34.48;91741.72;5063432;28;20044;-80
2024/03/25 08:45:06;;;;;;;1.63;0.93;;;;;;;9.13;33.86;91752.81;5025817;28;20042;-80
2024/03/25 08:47:32;;;;;;;1.10;0.95;;;;;;;9.47;32.99;91748.94;5049126;28;20064;-81
2024/03/25 08:49:57;;;;;;;0.93;0.80;;;;;;;9.66;33.69;91736.47;5040380;28;20033;-81
2024/03/25 08:52:23;;;;;;;2.38;1.10;;;;;;;9.72;34.03;91732.63;5048189;28;20120;-80
2024/03/25 08:54:49;;;;;;;0.82;0.70;;;;;;;9.84;30.41;91734.72;5057610;28;20044;-80
2024/03/25 08:57:14;;;;;;;1.98;0.90;;;;;;;9.73;32.00;91731.59;5041474;28;20132;-83
2024/03/25 08:59:40;;;;;;;1.00;0.90;;;;;;;9.63;32.29;91729.22;5049733;28;20043;-83
2024/03/25 09:02:07;;;;;;;0.73;0.73;;;;;;;9.67;31.53;91730.16;5039862;28;20427;-82
2024/03/25 09:04:34;;;;;;;1.75;0.98;;;;;;;10.14;32.08;91727.94;5054384;28;20190;-82
2024/03/25 09:06:59;;;;;;;1.52;0.98;;;;;;;10.07;31.00;91722.38;5036211;28;20089;-82
2024/03/25 09:12:10;;;;;;;1.40;0.80;;;;;;;9.61;30.39;91728.72;5042570;28;20088;-81
2024/03/25 09:14:38;;;;;;;1.13;0.73;;;;;;;9.82;29.85;91728.22;5056773;28;20079;-81
2024/03/25 09:17:04;;;;;;;1.73;0.90;;;;;;;9.57;29.86;91731.19;5044910;28;20045;-82
2024/03/25 09:19:30;;;;;;;1.38;0.90;;;;;;;9.71;29.96;91723.28;5048068;28;20561;-81
2024/03/25 09:21:55;;;;;;;0.90;0.85;;;;;;;9.66;31.19;91718.19;5047994;28;20136;-82
2024/03/25 09:24:23;;;;;;;0.63;0.60;;;;;;;9.79;30.48;91722.56;5041889;28;20048;-82
2024/03/25 09:26:52;;;;;;;1.33;1.00;;;;;;;10.08;31.50;91723.16;5010193;28;20099;-82
2024/03/25 09:29:18;;;;;;;1.83;0.85;;;;;;;10.18;29.18;91728.91;5032724;28;20522;-82
2024/03/25 09:31:44;;;;;;;0.95;0.80;;;;;;;10.25;28.02;91728.47;5039617;28;20121;-81
2024/03/25 09:34:09;;;;;;;1.40;1.00;;;;;;;10.50;30.53;91727.03;5056302;28;20077;-81
2024/03/25 09:36:35;;;;;;;1.48;1.00;;;;;;;10.56;28.66;91722.41;5039537;28;20114;-81
2024/03/25 09:39:04;;;;;;;1.17;0.80;;;;;;;10.36;28.82;91723.78;5047874;28;20064;-82
2024/03/25 09:41:34;;;;;;;1.70;0.80;;;;;;;10.31;28.06;91731.72;5029271;28;20053;-82
2024/03/25 09:44:05;;;;;;;0.70;0.70;;;;;;;10.29;27.28;91734.66;5051006;28;20518;-83
2024/03/25 09:46:31;;;;;;;0.75;0.75;;;;;;;10.40;27.77;91727.28;5030435;28;20037;-80
2024/03/25 09:49:05;;;;;;;3.45;1.08;;;;;;;10.55;26.81;91711.19;5042713;28;20026;-81
2024/03/25 09:51:31;;;;;;;0.88;0.75;;;;;;;10.75;26.57;91724.78;5054996;28;20045;-81
2024/03/25 09:53:57;;;;;;;1.20;0.90;;;;;;;10.73;27.15;91722.47;5047814;28;20056;-81
2024/03/25 09:56:24;;;;;;;2.08;1.33;;;;;;;10.54;26.35;91712.28;5048686;28;20037;-82
2024/03/25 09:58:50;;;;;;;0.70;0.70;;;;;;;10.52;27.27;91721.50;5045634;28;20025;-81
2024/03/25 10:01:16;;;;;;;1.25;0.90;;;;;;;10.92;27.05;91719.59;5047670;28;20033;-81
2024/03/25 10:03:42;;;;;;;0.98;0.80;;;;;;;11.48;25.79;91711.13;5047706;28;20029;-82
2024/03/25 10:06:17;;;;;;;1.00;0.90;;;;;;;11.43;27.77;91718.06;5060334;28;20072;-82
2024/03/25 10:08:45;;;;;;;1.20;0.85;;;;;;;11.31;24.96;91717.91;5042071;28;20390;-82
2024/03/25 10:11:49;;;;;;;1.80;1.00;;;;;;;11.49;27.74;91720.53;5041093;28;20036;-82
2024/03/25 10:14:20;;;;;;;1.02;0.90;;;;;;;11.72;26.20;91713.25;5059861;28;20051;-83
2024/03/25 10:16:49;;;;;;;1.55;0.80;;;;;;;11.70;25.23;91716.19;5053485;28;20342;-82
2024/03/25 10:19:25;;;;;;;1.33;0.80;;;;;;;11.82;26.36;91710.28;5049794;28;20474;-81
2024/03/25 10:22:08;;;;;;;0.82;0.80;;;;;;;12.00;24.78;91714.47;5050521;28;20097;-82
2024/03/25 10:24:44;;;;;;;0.60;0.60;;;;;;;11.31;25.33;91709.28;5039773;28;20095;-81
2024/03/25 10:27:29;;;;;;;1.58;1.00;;;;;;;11.70;27.89;91708.31;5041681;28;20040;-82
2024/03/25 10:29:55;;;;;;;1.58;0.90;;;;;;;12.07;24.84;91706.09;5022523;28;20103;-82
2024/03/25 10:32:24;;;;;;;0.80;0.80;;;;;;;12.72;26.95;91709.34;5042394;28;20068;-81
2024/03/25 10:34:50;;;;;;;1.20;0.80;;;;;;;13.10;23.31;91711.94;5045863;28;20052;-82
2024/03/25 10:37:23;;;;;;;1.73;0.98;;;;;;;12.74;24.71;91709.81;5043585;28;20096;-81
2024/03/25 10:40:00;;;;;;;1.00;0.73;;;;;;;12.84;24.81;91713.94;5025614;28;20041;-82
2024/03/25 10:42:26;;;;;;;0.50;0.50;;;;;;;12.23;26.03;91707.13;5026003;28;20042;-81
2024/03/25 10:44:52;;;;;;;0.70;0.70;;;;;;;12.04;24.35;91699.63;5050882;28;20498;-82
2024/03/25 10:47:57;;;;;;;0.60;0.60;;;;;;;11.99;23.99;91699.03;5057082;28;20025;-82
2024/03/25 10:50:27;;;;;;;0.90;0.80;;;;;;;12.43;25.47;91692.53;5042085;28;20087;-81
2024/03/25 10:52:54;;;;;;;1.50;0.93;;;;;;;12.78;28.22;91700.22;5040480;28;20065;-81
2024/03/25 10:55:21;;;;;;;0.90;0.70;;;;;;;12.89;24.22;91696.13;5037477;28;20049;-82
2024/03/25 10:57:48;;;;;;;0.90;0.75;;;;;;;13.20;24.84;91699.50;5063040;28;20044;-82
2024/03/25 11:00:15;;;;;;;1.23;0.90;;;;;;;12.94;24.46;91687.28;5062055;28;20029;-82
2024/03/25 11:02:43;;;;;;;1.05;0.80;;;;;;;13.10;23.85;91669.88;5060299;28;20118;-82
2024/03/25 11:05:38;;;;;;;0.70;0.70;;;;;;;13.06;24.07;91679.50;5034222;28;20100;-82
2024/03/25 11:08:16;;;;;;;4.35;1.10;;;;;;;12.56;24.17;91682.88;5043260;28;20085;-81
2024/03/25 11:10:43;;;;;;;3.35;1.00;;;;;;;12.37;24.68;91672.78;5043109;28;20047;-81
2024/03/25 11:13:12;;;;;;;0.68;0.68;;;;;;;12.02;24.81;91669.53;5040937;28;20120;-82
2024/03/25 11:15:46;;;;;;;1.65;1.05;;;;;;;12.06;25.34;91659.97;5049525;28;20524;-81
2024/03/25 11:18:16;;;;;;;1.33;0.98;;;;;;;11.91;26.11;91663.09;5059627;28;20034;-82
2024/03/25 11:20:47;;;;;;;1.27;1.00;;;;;;;11.97;25.57;91652.13;5041549;28;20033;-81
2024/03/25 11:23:13;;;;;;;1.60;0.90;;;;;;;11.92;23.71;91652.31;5053072;28;20079;-82
2024/03/25 11:25:41;;;;;;;0.70;0.70;;;;;;;11.97;24.47;91643.50;5060970;28;20048;-81
2024/03/25 11:28:09;;;;;;;1.35;0.80;;;;;;;11.99;23.71;91646.56;5020558;28;20499;-81
2024/03/25 11:30:36;;;;;;;1.02;0.82;;;;;;;11.92;24.78;91644.44;5035442;28;20471;-81
2024/03/25 11:33:04;;;;;;;2.72;1.05;;;;;;;11.72;23.81;91619.63;5051196;28;20045;-81
2024/03/25 11:35:41;;;;;;;2.10;0.80;;;;;;;11.65;23.96;91629.84;5047745;28;20071;-81
2024/03/25 11:38:06;;;;;;;1.08;0.80;;;;;;;11.82;25.03;91629.78;5049370;28;20383;-80
2024/03/25 11:40:35;;;;;;;0.82;0.70;;;;;;;11.72;24.08;91629.34;5037223;28;20048;-80
2024/03/25 11:43:01;;;;;;;1.17;0.95;;;;;;;12.04;24.42;91626.16;5030587;28;20163;-80
2024/03/25 11:45:31;;;;;;;0.60;0.60;;;;;;;12.24;25.06;91622.06;5012538;28;20517;-80